Time;durP1;ratioP1;P1;durP2;ratioP2;P2;SDS_P1;SDS_P2;PMS_P1;PMS_P2;Temp;Humidity;BMP_temperature;BMP_pressure;BME280_temperature;BME280_humidity;BME280_pressure;Samples;Min_cycle;Max_cycle;Signal;HPM_P1;HPM_P2
2022/05/23 00:03:27;;;;;;;;;;;18.50;99.90;;;;;;8378892;28;20322;-76
2022/05/23 00:07:32;;;;;;;;;;;18.50;99.90;;;;;;8393369;28;19963;-76
2022/05/23 00:11:34;;;;;;;;;;;18.40;99.90;;;;;;8398925;28;19926;-76
2022/05/23 00:15:37;;;;;;;;;;;18.40;99.90;;;;;;8389822;28;20025;-76
2022/05/23 00:19:39;;;;;;;;;;;18.30;99.90;;;;;;8399539;28;19920;-75
2022/05/23 00:23:41;;;;;;;;;;;18.30;99.90;;;;;;8384362;28;19958;-75
2022/05/23 00:27:43;;;;;;;;;;;18.30;99.90;;;;;;8389188;28;19931;-75
2022/05/23 00:36:05;;;;;;;;;;;18.20;99.90;;;;;;8378585;28;19943;-76
2022/05/23 00:40:11;;;;;;;;;;;18.10;99.90;;;;;;8387135;28;19931;-76
2022/05/23 00:44:12;;;;;;;;;;;18.10;99.90;;;;;;8387307;28;20313;-76
2022/05/23 00:48:15;;;;;;;;;;;18.00;99.90;;;;;;8392671;28;19924;-76
2022/05/23 00:52:21;;;;;;;;;;;18.00;99.90;;;;;;8388873;28;19935;-76
2022/05/23 00:56:25;;;;;;;;;;;17.90;99.90;;;;;;8382890;28;20236;-75
2022/05/23 01:00:27;;;;;;;;;;;17.90;99.90;;;;;;8398788;28;19921;-76
2022/05/23 01:04:30;;;;;;;;;;;17.80;99.90;;;;;;8385361;28;19920;-76
2022/05/23 01:08:33;;;;;;;;;;;17.80;99.90;;;;;;8379425;28;19931;-76
2022/05/23 01:12:36;;;;;;;;;;;17.80;99.90;;;;;;8392404;28;19951;-75
2022/05/23 01:16:38;;;;;;;;;;;17.70;99.90;;;;;;8392982;28;20425;-75
2022/05/23 01:20:39;;;;;;;;;;;17.70;99.90;;;;;;8394184;28;19921;-76
2022/05/23 01:24:45;;;;;;;;;;;17.70;99.90;;;;;;8403965;28;20380;-75
2022/05/23 01:28:46;;;;;;;;;;;17.70;99.90;;;;;;8401519;28;19932;-75
2022/05/23 01:32:48;;;;;;;;;;;17.70;99.90;;;;;;8391007;28;24080;-75
2022/05/23 01:36:50;;;;;;;;;;;17.60;99.90;;;;;;8412479;28;19920;-76
2022/05/23 01:40:53;;;;;;;;;;;17.60;99.90;;;;;;8382005;28;19921;-75
2022/05/23 01:44:55;;;;;;;;;;;17.60;99.90;;;;;;8389311;28;19925;-75
2022/05/23 01:48:57;;;;;;;;;;;17.60;99.90;;;;;;8406682;28;19921;-75
2022/05/23 01:52:58;;;;;;;;;;;17.60;99.90;;;;;;8410772;28;19977;-76
2022/05/23 01:57:00;;;;;;;;;;;17.60;99.90;;;;;;8395656;28;19920;-75
2022/05/23 02:01:14;;;;;;;;;;;17.50;99.90;;;;;;8385312;28;19939;-75
2022/05/23 02:05:16;;;;;;;;;;;17.50;99.90;;;;;;8395149;28;20370;-75
2022/05/23 02:09:26;;;;;;;;;;;17.50;99.90;;;;;;8397969;28;19924;-76
2022/05/23 02:13:27;;;;;;;;;;;17.40;99.90;;;;;;8389310;28;20272;-76
2022/05/23 02:17:30;;;;;;;;;;;17.30;99.90;;;;;;8402304;28;20232;-75
2022/05/23 02:21:31;;;;;;;;;;;17.30;99.90;;;;;;8389397;28;19928;-76
2022/05/23 02:25:33;;;;;;;;;;;17.20;99.90;;;;;;8380603;28;19921;-75
2022/05/23 02:29:35;;;;;;;;;;;17.20;99.90;;;;;;8391543;28;19920;-75
2022/05/23 02:33:37;;;;;;;;;;;17.10;99.90;;;;;;8383564;28;19928;-75
2022/05/23 02:37:38;;;;;;;;;;;17.10;99.90;;;;;;8394618;28;20005;-75
2022/05/23 02:41:40;;;;;;;;;;;17.00;99.90;;;;;;8398069;28;19935;-75
2022/05/23 02:45:42;;;;;;;;;;;16.90;99.90;;;;;;8412810;28;19920;-75
2022/05/23 02:49:43;;;;;;;;;;;16.90;99.90;;;;;;8421353;28;19920;-75
2022/05/23 02:53:45;;;;;;;;;;;16.80;99.90;;;;;;8382376;28;19925;-75
2022/05/23 02:57:46;;;;;;;;;;;16.70;99.90;;;;;;8387119;28;19932;-75
2022/05/23 03:06:09;;;;;;;;;;;16.50;99.90;;;;;;8390486;28;19942;-75
2022/05/23 03:10:11;;;;;;;;;;;16.50;99.90;;;;;;8403238;28;19924;-75
2022/05/23 03:14:12;;;;;;;;;;;16.40;99.90;;;;;;8386241;28;19922;-75
2022/05/23 03:18:14;;;;;;;;;;;16.40;99.90;;;;;;8387222;28;19927;-75
2022/05/23 03:31:06;;;;;;;;;;;16.40;99.90;;;;;;8382272;28;20283;-75
2022/05/23 03:35:08;;;;;;;;;;;16.40;99.90;;;;;;8392968;28;19928;-75
2022/05/23 03:39:10;;;;;;;;;;;16.40;99.90;;;;;;8390373;28;19964;-75
2022/05/23 03:43:14;;;;;;;;;;;16.40;99.90;;;;;;8405729;28;19932;-75
2022/05/23 03:47:15;;;;;;;;;;;16.30;99.90;;;;;;8378396;28;19927;-75
2022/05/23 03:51:17;;;;;;;;;;;16.30;99.90;;;;;;8386771;28;19927;-75
2022/05/23 03:55:19;;;;;;;;;;;16.20;99.90;;;;;;8397039;28;19924;-75
2022/05/23 03:59:21;;;;;;;;;;;16.20;99.90;;;;;;8392095;28;19928;-76
2022/05/23 04:03:23;;;;;;;;;;;16.10;99.90;;;;;;8399541;28;19920;-75
2022/05/23 04:07:24;;;;;;;;;;;16.10;99.90;;;;;;8388696;28;20024;-75
2022/05/23 04:11:26;;;;;;;;;;;16.10;99.90;;;;;;8398008;28;19931;-75
2022/05/23 04:15:31;;;;;;;;;;;16.10;99.90;;;;;;8408336;28;20279;-75
2022/05/23 04:19:32;;;;;;;;;;;16.10;99.90;;;;;;8388302;28;19932;-76
2022/05/23 04:23:34;;;;;;;;;;;16.10;99.90;;;;;;8389606;28;19920;-76
2022/05/23 04:27:36;;;;;;;;;;;16.10;99.90;;;;;;8415721;28;20409;-75
2022/05/23 04:31:37;;;;;;;;;;;16.20;99.90;;;;;;8390795;28;19925;-76
2022/05/23 04:35:39;;;;;;;;;;;16.20;99.90;;;;;;8391616;28;19928;-75
2022/05/23 04:39:41;;;;;;;;;;;16.20;99.90;;;;;;8387471;28;19936;-75
2022/05/23 04:43:42;;;;;;;;;;;16.30;99.90;;;;;;8379345;28;19927;-75
2022/05/23 04:52:04;;;;;;;;;;;16.40;99.90;;;;;;8387645;28;19928;-75
2022/05/23 04:56:06;;;;;;;;;;;16.40;99.90;;;;;;8399152;28;19931;-75
2022/05/23 05:00:10;;;;;;;;;;;16.40;99.90;;;;;;8414993;28;19947;-75
2022/05/23 05:04:11;;;;;;;;;;;16.50;99.90;;;;;;8413506;28;20007;-75
2022/05/23 05:08:13;;;;;;;;;;;16.50;99.90;;;;;;8407993;28;19931;-75
2022/05/23 05:12:15;;;;;;;;;;;16.60;99.90;;;;;;8392664;28;19920;-75
2022/05/23 05:16:19;;;;;;;;;;;16.60;99.90;;;;;;8399324;28;19925;-76
2022/05/23 05:20:23;;;;;;;;;;;16.60;99.90;;;;;;8403078;28;19974;-75
2022/05/23 05:24:25;;;;;;;;;;;16.60;99.90;;;;;;8388514;28;19932;-75
2022/05/23 05:28:26;;;;;;;;;;;16.60;99.90;;;;;;8403567;28;19935;-75
2022/05/23 05:32:44;;;;;;;;;;;16.70;99.90;;;;;;8392049;28;19924;-75
2022/05/23 05:36:48;;;;;;;;;;;16.70;99.90;;;;;;8440331;27;19935;-76
2022/05/23 05:40:55;;;;;;;;;;;16.80;99.90;;;;;;8402431;28;19929;-76
2022/05/23 05:45:06;;;;;;;;;;;16.90;99.90;;;;;;8392679;28;19920;-75
2022/05/23 05:49:10;;;;;;;;;;;17.00;99.90;;;;;;8405770;28;20283;-75
2022/05/23 05:53:14;;;;;;;;;;;17.00;99.90;;;;;;8393407;28;19921;-76
2022/05/23 05:57:16;;;;;;;;;;;17.00;99.90;;;;;;8389523;28;19921;-76
2022/05/23 06:01:17;;;;;;;;;;;17.10;99.90;;;;;;8396503;28;20371;-75
2022/05/23 06:05:19;;;;;;;;;;;17.20;99.90;;;;;;8396071;28;19931;-76
2022/05/23 06:13:41;;;;;;;;;;;17.30;99.90;;;;;;8388559;28;24064;-75
2022/05/23 06:17:43;;;;;;;;;;;17.40;99.90;;;;;;8407066;28;19947;-75
2022/05/23 06:21:45;;;;;;;;;;;17.50;99.90;;;;;;8408816;28;19924;-76
2022/05/23 06:25:47;;;;;;;;;;;17.60;99.90;;;;;;8402190;28;19924;-75
2022/05/23 06:29:49;;;;;;;;;;;17.60;99.90;;;;;;8409053;28;19935;-75
2022/05/23 06:33:55;;;;;;;;;;;17.70;99.90;;;;;;8408074;28;19971;-76
2022/05/23 06:37:56;;;;;;;;;;;17.70;99.90;;;;;;8401638;28;19920;-76
2022/05/23 06:41:58;;;;;;;;;;;17.70;99.90;;;;;;8391613;28;19924;-76
2022/05/23 06:46:01;;;;;;;;;;;17.80;99.90;;;;;;8398583;28;19935;-75
2022/05/23 06:50:03;;;;;;;;;;;17.90;99.90;;;;;;8383361;28;19936;-76
2022/05/23 06:54:04;;;;;;;;;;;18.00;99.90;;;;;;8392028;28;20364;-76
2022/05/23 06:58:06;;;;;;;;;;;18.00;99.90;;;;;;8406214;28;19931;-76
2022/05/23 07:02:09;;;;;;;;;;;18.10;99.90;;;;;;8406307;28;19920;-76
2022/05/23 07:14:53;;;;;;;;;;;18.30;99.90;;;;;;8411025;28;20042;-76
2022/05/23 07:18:56;;;;;;;;;;;18.30;99.90;;;;;;8407290;28;20336;-75
2022/05/23 07:22:58;;;;;;;;;;;18.30;99.90;;;;;;8400985;28;19920;-77
2022/05/23 07:27:00;;;;;;;;;;;18.40;99.90;;;;;;8403842;28;19931;-76
2022/05/23 07:31:02;;;;;;;;;;;18.50;99.90;;;;;;8418388;27;20333;-76
2022/05/23 07:35:04;;;;;;;;;;;18.60;99.90;;;;;;8399108;28;19924;-77
2022/05/23 07:39:08;;;;;;;;;;;18.60;99.90;;;;;;8403891;28;19920;-76
2022/05/23 07:43:09;;;;;;;;;;;18.60;99.90;;;;;;8388898;28;19925;-77
2022/05/23 07:47:11;;;;;;;;;;;18.60;99.90;;;;;;8397376;28;19920;-76
2022/05/23 07:51:14;;;;;;;;;;;18.60;99.90;;;;;;8399258;28;19920;-77
2022/05/23 08:03:56;;;;;;;;;;;18.80;99.90;;;;;;8404761;28;19931;-77
2022/05/23 08:07:58;;;;;;;;;;;18.80;99.90;;;;;;8384450;28;20386;-77
2022/05/23 08:12:00;;;;;;;;;;;18.90;99.90;;;;;;8362560;28;20449;-77
2022/05/23 08:16:02;;;;;;;;;;;19.00;99.90;;;;;;8366939;28;19933;-77
2022/05/23 08:20:05;;;;;;;;;;;19.10;99.90;;;;;;8369709;28;19924;-78
2022/05/23 08:24:07;;;;;;;;;;;19.10;99.90;;;;;;8363683;28;19920;-78
2022/05/23 08:28:09;;;;;;;;;;;19.20;99.90;;;;;;8366170;28;20265;-77
2022/05/23 08:32:11;;;;;;;;;;;19.30;99.90;;;;;;8368023;28;19940;-77
2022/05/23 08:36:13;;;;;;;;;;;19.50;99.90;;;;;;8363886;28;19951;-77
2022/05/23 08:40:15;;;;;;;;;;;19.50;99.90;;;;;;8372172;28;20257;-78
2022/05/23 08:44:16;;;;;;;;;;;19.70;99.90;;;;;;8362693;28;20265;-77
2022/05/23 08:48:41;;;;;;;;;;;19.90;99.90;;;;;;8367059;28;19943;-76
2022/05/23 08:52:45;;;;;;;;;;;20.00;99.90;;;;;;8361660;28;20308;-76
2022/05/23 08:56:50;;;;;;;;;;;20.20;99.90;;;;;;8362274;28;25057;-76
2022/05/23 09:00:54;;;;;;;;;;;20.20;99.90;;;;;;8364354;28;19978;-77
2022/05/23 09:04:58;;;;;;;;;;;20.30;99.90;;;;;;8363397;28;19947;-77
2022/05/23 09:09:03;;;;;;;;;;;20.30;99.90;;;;;;8367018;28;19924;-78
2022/05/23 09:13:09;;;;;;;;;;;20.40;99.90;;;;;;8364360;28;19921;-77
2022/05/23 09:17:25;;;;;;;;;;;20.40;99.90;;;;;;8373295;28;19929;-77
2022/05/23 09:22:12;;;;;;;;;;;20.30;99.90;;;;;;8368633;28;19974;-78
2022/05/23 09:25:52;;;;;;;;;;;20.30;99.90;;;;;;8376186;28;24082;-77
2022/05/23 09:29:55;;;;;;;;;;;20.30;99.90;;;;;;8384353;28;24075;-78
2022/05/23 09:33:57;;;;;;;;;;;20.20;99.90;;;;;;8376332;28;19935;-77
2022/05/23 09:38:04;;;;;;;;;;;20.20;99.90;;;;;;8373933;28;25073;-77
2022/05/23 09:50:38;;;;;;;;;;;20.10;99.90;;;;;;8360434;28;20323;-77
2022/05/23 09:54:48;;;;;;;;;;;20.00;99.90;;;;;;8374361;28;19990;-77
2022/05/23 09:58:50;;;;;;;;;;;20.00;99.90;;;;;;8370261;28;19928;-78
2022/05/23 10:03:01;;;;;;;;;;;19.90;99.90;;;;;;8377791;28;19930;-77
2022/05/23 10:07:18;;;;;;;;;;;20.00;99.90;;;;;;8358369;28;19927;-78
2022/05/23 10:11:33;;;;;;;;;;;20.00;99.90;;;;;;8360877;28;19924;-78
2022/05/23 10:15:40;;;;;;;;;;;20.00;99.90;;;;;;8374438;28;19924;-78
2022/05/23 10:19:42;;;;;;;;;;;20.00;99.90;;;;;;8392624;27;19927;-77
2022/05/23 10:23:57;;;;;;;;;;;20.00;99.90;;;;;;8368313;28;20020;-77
2022/05/23 10:28:00;;;;;;;;;;;20.00;99.90;;;;;;8362440;28;25059;-77
2022/05/23 10:32:07;;;;;;;;;;;20.00;99.90;;;;;;8369136;28;19934;-77
2022/05/23 10:36:18;;;;;;;;;;;20.00;99.90;;;;;;8367507;28;19975;-77
2022/05/23 10:44:55;;;;;;;;;;;20.10;99.90;;;;;;8376854;28;25086;-77
2022/05/23 10:49:01;;;;;;;;;;;20.20;99.90;;;;;;8377565;28;20363;-77
2022/05/23 10:53:24;;;;;;;;;;;20.30;99.90;;;;;;8374378;28;19920;-77
2022/05/23 10:57:32;;;;;;;;;;;20.40;99.90;;;;;;8396148;28;19929;-76
2022/05/23 11:01:52;;;;;;;;;;;20.50;99.90;;;;;;8381036;28;19927;-76
2022/05/23 11:06:01;;;;;;;;;;;20.60;99.90;;;;;;8377628;28;19928;-77
2022/05/23 11:10:13;;;;;;;;;;;20.70;99.90;;;;;;8397061;28;20352;-76
2022/05/23 11:14:53;;;;;;;;;;;20.90;99.90;;;;;;8380052;28;19961;-76
2022/05/23 11:19:01;;;;;;;;;;;21.20;99.90;;;;;;8378435;28;19940;-76
2022/05/23 11:23:15;;;;;;;;;;;21.40;99.90;;;;;;8381381;28;19924;-77
2022/05/23 11:36:33;;;;;;;;;;;21.80;99.90;;;;;;8381335;28;20368;-77
2022/05/23 11:40:38;;;;;;;;;;;22.00;99.90;;;;;;8379637;28;20391;-77
2022/05/23 11:44:43;;;;;;;;;;;22.10;99.90;;;;;;8376436;28;19927;-77
2022/05/23 11:48:46;;;;;;;;;;;22.30;99.90;;;;;;8411833;27;19972;-77
2022/05/23 11:53:03;;;;;;;;;;;22.30;99.90;;;;;;8407697;28;19924;-77
2022/05/23 11:57:05;;;;;;;;;;;22.40;99.90;;;;;;8377275;28;19924;-78
2022/05/23 12:01:15;;;;;;;;;;;22.50;99.90;;;;;;8377772;28;20324;-77
2022/05/23 12:05:29;;;;;;;;;;;22.50;99.90;;;;;;8372015;28;20716;-77
2022/05/23 12:09:33;;;;;;;;;;;22.50;99.90;;;;;;8367548;28;19924;-77
2022/05/23 12:13:34;;;;;;;;;;;22.50;99.90;;;;;;8364597;28;19921;-77
2022/05/23 12:17:36;;;;;;;;;;;22.50;99.90;;;;;;8387841;28;20252;-77
2022/05/23 12:21:40;;;;;;;;;;;22.40;99.90;;;;;;8379872;28;19932;-76
2022/05/23 12:25:42;;;;;;;;;;;22.40;99.90;;;;;;8377500;28;24075;-77
2022/05/23 12:29:43;;;;;;;;;;;22.30;99.90;;;;;;8378821;28;19921;-76
2022/05/23 12:33:48;;;;;;;;;;;22.30;99.90;;;;;;8379298;28;25068;-76
2022/05/23 12:38:00;;;;;;;;;;;22.20;99.90;;;;;;8408648;28;19927;-76
2022/05/23 12:42:16;;;;;;;;;;;22.10;99.90;;;;;;8375682;28;19928;-77
2022/05/23 12:46:25;;;;;;;;;;;22.00;99.90;;;;;;8377979;28;19924;-76
2022/05/23 12:50:44;;;;;;;;;;;22.00;99.90;;;;;;8375881;28;19921;-77
2022/05/23 12:54:45;;;;;;;;;;;22.00;99.90;;;;;;8378633;28;19927;-77
2022/05/23 12:59:06;;;;;;;;;;;21.90;99.90;;;;;;8378155;28;19921;-77
2022/05/23 13:03:14;;;;;;;;;;;22.00;99.90;;;;;;8373513;28;19927;-77
2022/05/23 13:07:22;;;;;;;;;;;21.90;99.90;;;;;;8378155;28;19921;-77
2022/05/23 13:11:29;;;;;;;;;;;21.90;99.90;;;;;;8375760;28;19924;-77
2022/05/23 13:15:31;;;;;;;;;;;21.90;99.90;;;;;;8376332;28;19920;-77
2022/05/23 13:23:54;;;;;;;;;;;21.80;99.90;;;;;;8374612;28;20280;-77
2022/05/23 13:27:59;;;;;;;;;;;21.70;99.90;;;;;;8378344;28;19925;-77
2022/05/23 13:32:07;;;;;;;;;;;21.60;99.90;;;;;;8378238;28;19924;-77
2022/05/23 13:36:09;;;;;;;;;;;21.60;99.90;;;;;;8377196;28;19932;-77
2022/05/23 13:40:11;;;;;;;;;;;21.60;99.90;;;;;;8362102;28;19921;-77
2022/05/23 13:44:26;;;;;;;;;;;21.50;99.90;;;;;;8363971;28;19929;-77
2022/05/23 13:48:32;;;;;;;;;;;21.50;99.90;;;;;;8365783;28;19920;-77
2022/05/23 13:52:36;;;;;;;;;;;21.40;99.90;;;;;;8372176;28;20311;-76
2022/05/23 13:56:42;;;;;;;;;;;21.40;99.90;;;;;;8380454;28;19928;-76
2022/05/23 14:00:55;;;;;;;;;;;21.20;99.90;;;;;;8381819;28;19921;-77
2022/05/23 14:04:57;;;;;;;;;;;21.10;99.90;;;;;;8381290;28;19921;-77
2022/05/23 14:09:00;;;;;;;;;;;21.00;99.90;;;;;;8381585;28;19935;-76
2022/05/23 14:13:02;;;;;;;;;;;20.90;99.90;;;;;;8378334;28;19931;-76
2022/05/23 14:17:10;;;;;;;;;;;20.80;99.90;;;;;;8381474;28;19921;-75
2022/05/23 14:21:32;;;;;;;;;;;20.70;99.90;;;;;;8380416;28;19928;-76
2022/05/23 14:25:37;;;;;;;;;;;20.60;99.90;;;;;;8382141;28;19936;-76
2022/05/23 14:29:38;;;;;;;;;;;20.50;99.90;;;;;;8397180;28;20383;-77
2022/05/23 14:33:42;;;;;;;;;;;20.40;99.90;;;;;;8381339;28;19927;-76
2022/05/23 14:37:47;;;;;;;;;;;20.30;99.90;;;;;;8380726;28;19934;-76
2022/05/23 14:41:50;;;;;;;;;;;20.30;99.90;;;;;;8381254;28;20273;-76
2022/05/23 14:45:53;;;;;;;;;;;20.30;99.90;;;;;;8381430;28;19932;-76
2022/05/23 14:49:58;;;;;;;;;;;20.30;99.90;;;;;;8382162;28;20430;-76
2022/05/23 15:02:47;;;;;;;;;;;20.40;99.90;;;;;;8382629;28;19927;-76
2022/05/23 15:06:49;;;;;;;;;;;20.40;99.90;;;;;;8382342;28;20364;-77
2022/05/23 15:10:52;;;;;;;;;;;20.50;99.90;;;;;;8382031;28;19936;-76
2022/05/23 15:14:54;;;;;;;;;;;20.60;99.90;;;;;;8370805;28;19927;-76
2022/05/23 15:18:56;;;;;;;;;;;20.50;99.90;;;;;;8369932;28;19924;-77
2022/05/23 15:22:58;;;;;;;;;;;20.40;99.90;;;;;;8370890;28;19920;-76
2022/05/23 15:26:59;;;;;;;;;;;20.40;99.90;;;;;;8361453;28;19927;-77
2022/05/23 15:31:01;;;;;;;;;;;20.40;99.90;;;;;;8360044;28;19921;-76
2022/05/23 15:35:03;;;;;;;;;;;20.30;99.90;;;;;;8361950;28;19925;-76
2022/05/23 15:39:05;;;;;;;;;;;20.20;99.90;;;;;;8366409;28;19924;-76
2022/05/23 15:43:09;;;;;;;;;;;20.10;99.90;;;;;;8363640;28;19928;-76
2022/05/23 15:47:12;;;;;;;;;;;20.00;99.90;;;;;;8369347;28;20016;-77
2022/05/23 15:51:15;;;;;;;;;;;20.00;99.90;;;;;;8371912;28;20261;-77
2022/05/23 15:55:17;;;;;;;;;;;20.00;99.90;;;;;;8365744;28;19932;-77
2022/05/23 15:59:19;;;;;;;;;;;20.10;99.90;;;;;;8369127;28;19951;-77
2022/05/23 16:03:20;;;;;;;;;;;20.20;99.90;;;;;;8364543;28;19927;-76
2022/05/23 16:07:22;;;;;;;;;;;20.20;99.90;;;;;;8366950;28;19928;-76
2022/05/23 16:11:26;;;;;;;;;;;20.20;99.90;;;;;;8387350;28;19943;-76
2022/05/23 16:15:28;;;;;;;;;;;20.10;99.90;;;;;;8369326;28;19928;-77
2022/05/23 16:19:29;;;;;;;;;;;20.10;99.90;;;;;;8383683;28;19939;-76
2022/05/23 16:23:32;;;;;;;;;;;20.00;99.90;;;;;;8370821;28;19935;-75
2022/05/23 16:27:34;;;;;;;;;;;19.90;99.90;;;;;;8368818;28;19932;-75
2022/05/23 16:31:36;;;;;;;;;;;19.50;99.90;;;;;;8358730;28;20303;-75
2022/05/23 16:39:58;;;;;;;;;;;19.10;99.90;;;;;;8361339;28;19920;-76
2022/05/23 16:44:00;;;;;;;;;;;18.80;99.90;;;;;;8358559;28;19925;-75
2022/05/23 16:48:02;;;;;;;;;;;18.70;99.90;;;;;;8361551;28;19924;-75
2022/05/23 16:52:03;;;;;;;;;;;18.60;99.90;;;;;;8359798;28;19924;-76
2022/05/23 16:56:05;;;;;;;;;;;18.40;99.90;;;;;;8356207;28;19943;-75
2022/05/23 17:00:07;;;;;;;;;;;18.10;99.90;;;;;;8364690;28;19932;-76
2022/05/23 17:04:09;;;;;;;;;;;17.90;99.90;;;;;;8358852;28;19921;-75
2022/05/23 17:08:11;;;;;;;;;;;17.50;99.90;;;;;;8361449;28;19920;-75
2022/05/23 17:12:13;;;;;;;;;;;17.20;99.90;;;;;;8368893;28;19927;-75
2022/05/23 17:16:15;;;;;;;;;;;16.90;99.90;;;;;;8362123;28;19921;-75
2022/05/23 17:20:18;;;;;;;;;;;16.70;99.90;;;;;;8359590;28;19947;-75
2022/05/23 17:24:22;;;;;;;;;;;16.50;99.90;;;;;;8364152;28;19964;-76
2022/05/23 17:28:24;;;;;;;;;;;16.30;99.90;;;;;;8366383;28;20308;-76
2022/05/23 17:32:25;;;;;;;;;;;16.20;99.90;;;;;;8373328;28;19928;-76
2022/05/23 17:36:27;;;;;;;;;;;16.20;99.90;;;;;;8379346;28;19928;-75
2022/05/23 17:40:30;;;;;;;;;;;16.10;99.90;;;;;;8367253;28;19920;-74
2022/05/23 17:44:31;;;;;;;;;;;16.00;99.90;;;;;;8382069;28;20287;-74
2022/05/23 17:48:34;;;;;;;;;;;16.00;99.90;;;;;;8366669;28;19924;-74
2022/05/23 17:52:35;;;;;;;;;;;15.90;99.90;;;;;;8364904;28;19928;-75
2022/05/23 17:56:37;;;;;;;;;;;15.90;99.90;;;;;;8365452;28;20336;-75
2022/05/23 18:00:39;;;;;;;;;;;15.80;99.90;;;;;;8367137;28;19931;-75
2022/05/23 18:04:41;;;;;;;;;;;15.80;99.90;;;;;;8368747;28;19925;-74
2022/05/23 18:08:43;;;;;;;;;;;15.80;99.90;;;;;;8366764;28;20395;-73
2022/05/23 18:12:44;;;;;;;;;;;15.70;99.90;;;;;;8368655;28;20272;-76
2022/05/23 18:21:07;;;;;;;;;;;15.60;99.90;;;;;;8366560;28;20412;-75
2022/05/23 18:25:08;;;;;;;;;;;15.60;99.90;;;;;;8364690;28;20328;-75
2022/05/23 18:29:10;;;;;;;;;;;15.60;99.90;;;;;;8365224;28;19957;-75
2022/05/23 18:33:13;;;;;;;;;;;15.60;99.90;;;;;;8382335;28;20038;-75
2022/05/23 18:37:16;;;;;;;;;;;15.70;99.90;;;;;;8370792;28;20349;-75
2022/05/23 18:41:19;;;;;;;;;;;15.70;99.90;;;;;;8362340;28;19975;-75
2022/05/23 18:45:21;;;;;;;;;;;15.70;99.90;;;;;;8360416;28;19948;-75
2022/05/23 18:49:41;;;;;;;;;;;15.70;99.90;;;;;;8364051;28;19924;-75
2022/05/23 18:53:43;;;;;;;;;;;15.60;99.90;;;;;;8372511;28;19924;-75
2022/05/23 18:57:45;;;;;;;;;;;15.70;99.90;;;;;;8365398;28;20397;-75
2022/05/23 19:01:48;;;;;;;;;;;15.70;99.90;;;;;;8368349;28;19925;-75
2022/05/23 19:05:50;;;;;;;;;;;15.70;99.90;;;;;;8366521;28;19927;-75
2022/05/23 19:09:51;;;;;;;;;;;15.70;99.90;;;;;;8408163;27;19929;-75
2022/05/23 19:13:53;;;;;;;;;;;15.60;99.90;;;;;;8369592;28;19925;-76
2022/05/23 19:18:15;;;;;;;;;;;15.70;99.90;;;;;;8360156;28;19963;-76
2022/05/23 19:22:17;;;;;;;;;;;15.70;99.90;;;;;;8357319;28;19936;-75
2022/05/23 19:26:19;;;;;;;;;;;15.80;99.90;;;;;;8360764;28;19937;-76
2022/05/23 19:30:20;;;;;;;;;;;15.70;99.90;;;;;;8365733;28;19931;-76
2022/05/23 19:34:23;;;;;;;;;;;15.80;99.90;;;;;;8358271;28;19925;-76
2022/05/23 19:38:24;;;;;;;;;;;15.70;99.90;;;;;;8360385;28;19928;-76
2022/05/23 19:42:26;;;;;;;;;;;15.70;99.90;;;;;;8362208;28;19921;-75
2022/05/23 19:46:28;;;;;;;;;;;15.60;99.90;;;;;;8359373;28;19924;-75
2022/05/23 19:50:30;;;;;;;;;;;15.60;99.90;;;;;;8377250;28;19921;-76
2022/05/23 19:54:32;;;;;;;;;;;15.50;99.90;;;;;;8361378;28;19929;-76
2022/05/23 19:58:34;;;;;;;;;;;15.50;99.90;;;;;;8360132;28;20204;-75
2022/05/23 20:07:02;;;;;;;;;;;15.30;99.90;;;;;;8361926;28;19931;-75
2022/05/23 20:11:04;;;;;;;;;;;15.20;99.90;;;;;;8355150;28;19925;-75
2022/05/23 20:15:26;;;;;;;;;;;15.10;99.90;;;;;;8357687;28;19924;-75
2022/05/23 20:19:28;;;;;;;;;;;15.10;99.90;;;;;;8377097;28;20285;-75
2022/05/23 20:23:30;;;;;;;;;;;15.10;99.90;;;;;;8362490;28;19947;-76
2022/05/23 20:27:51;;;;;;;;;;;15.10;99.90;;;;;;8357232;28;20031;-75
2022/05/23 20:31:53;;;;;;;;;;;15.10;99.90;;;;;;8354558;28;19925;-75
2022/05/23 20:36:15;;;;;;;;;;;15.10;99.90;;;;;;8370448;28;20027;-75
2022/05/23 20:40:18;;;;;;;;;;;15.10;99.90;;;;;;8373362;28;21883;-75
2022/05/23 20:44:19;;;;;;;;;;;15.00;99.90;;;;;;8351536;28;20307;-74
2022/05/23 20:48:21;;;;;;;;;;;15.00;99.90;;;;;;8359637;28;19928;-75
2022/05/23 20:52:23;;;;;;;;;;;15.00;99.90;;;;;;8354058;28;22692;-75
2022/05/23 20:56:25;;;;;;;;;;;15.00;99.90;;;;;;8368016;28;19928;-75
2022/05/23 21:00:28;;;;;;;;;;;15.00;99.90;;;;;;8354398;28;19923;-75
2022/05/23 21:04:31;;;;;;;;;;;15.00;99.90;;;;;;8388706;28;19921;-75
2022/05/23 21:08:34;;;;;;;;;;;14.90;99.90;;;;;;8388843;28;19924;-76
2022/05/23 21:12:36;;;;;;;;;;;14.90;99.90;;;;;;8389765;28;20387;-75
2022/05/23 21:16:38;;;;;;;;;;;14.90;99.90;;;;;;8380114;28;19937;-75
2022/05/23 21:20:40;;;;;;;;;;;14.90;99.90;;;;;;8381992;28;20384;-75
2022/05/23 21:24:42;;;;;;;;;;;14.80;99.90;;;;;;8381689;28;19921;-75
2022/05/23 21:28:43;;;;;;;;;;;14.80;99.90;;;;;;8389339;28;20343;-75
2022/05/23 21:32:45;;;;;;;;;;;14.80;99.90;;;;;;8378837;28;19961;-75
2022/05/23 21:36:47;;;;;;;;;;;14.80;99.90;;;;;;8399723;28;20398;-75
2022/05/23 21:49:29;;;;;;;;;;;14.70;99.90;;;;;;8398322;28;20260;-74
2022/05/23 21:53:31;;;;;;;;;;;14.80;99.90;;;;;;8390733;28;19925;-75
2022/05/23 21:57:33;;;;;;;;;;;14.70;99.90;;;;;;8389161;28;19935;-75
2022/05/23 22:01:51;;;;;;;;;;;14.70;99.90;;;;;;8387172;28;19955;-75
2022/05/23 22:05:53;;;;;;;;;;;14.70;99.90;;;;;;8404682;28;19925;-75
2022/05/23 22:09:54;;;;;;;;;;;14.70;99.90;;;;;;8368514;28;19924;-75
2022/05/23 22:13:57;;;;;;;;;;;14.70;99.90;;;;;;8386838;28;19940;-75
2022/05/23 22:17:58;;;;;;;;;;;14.70;99.90;;;;;;8395709;28;19919;-75
2022/05/23 22:22:00;;;;;;;;;;;14.60;99.90;;;;;;8387683;28;20290;-75
2022/05/23 22:26:07;;;;;;;;;;;14.70;99.90;;;;;;8398325;28;19920;-75
2022/05/23 22:30:09;;;;;;;;;;;14.70;99.90;;;;;;8401780;28;19927;-75
2022/05/23 22:34:11;;;;;;;;;;;14.70;99.90;;;;;;8390402;28;19928;-75
2022/05/23 22:38:13;;;;;;;;;;;14.70;99.90;;;;;;8404386;28;20383;-75
2022/05/23 22:42:15;;;;;;;;;;;14.60;99.90;;;;;;8390407;28;20299;-75
2022/05/23 22:46:17;;;;;;;;;;;14.70;99.90;;;;;;8405346;28;20617;-75
2022/05/23 22:50:19;;;;;;;;;;;14.70;99.90;;;;;;8401247;28;20051;-76
2022/05/23 22:54:21;;;;;;;;;;;14.60;99.90;;;;;;8404050;28;19943;-75
2022/05/23 22:58:23;;;;;;;;;;;14.70;99.90;;;;;;8389314;28;20283;-75
2022/05/23 23:02:24;;;;;;;;;;;14.60;99.90;;;;;;8392596;28;19928;-75
2022/05/23 23:06:26;;;;;;;;;;;14.70;99.90;;;;;;8388188;28;19936;-75
2022/05/23 23:10:28;;;;;;;;;;;14.70;99.90;;;;;;8378356;28;19920;-75
2022/05/23 23:14:30;;;;;;;;;;;14.70;99.90;;;;;;8391635;28;20291;-75
2022/05/23 23:18:31;;;;;;;;;;;14.70;99.90;;;;;;8368317;28;19920;-75
2022/05/23 23:22:33;;;;;;;;;;;14.60;99.90;;;;;;8388085;28;19935;-75
2022/05/23 23:26:35;;;;;;;;;;;14.70;99.90;;;;;;8381859;28;20331;-75
2022/05/23 23:30:37;;;;;;;;;;;14.70;99.90;;;;;;8402406;28;20309;-75
2022/05/23 23:38:59;;;;;;;;;;;14.70;99.90;;;;;;8377910;28;19924;-75
2022/05/23 23:43:01;;;;;;;;;;;14.70;99.90;;;;;;8398543;28;20279;-75
2022/05/23 23:47:02;;;;;;;;;;;14.70;99.90;;;;;;8397821;28;19923;-75
2022/05/23 23:51:04;;;;;;;;;;;14.70;99.90;;;;;;8391397;28;19920;-75
2022/05/23 23:55:06;;;;;;;;;;;14.70;99.90;;;;;;8381418;28;19921;-75
2022/05/23 23:59:08;;;;;;;;;;;14.80;99.90;;;;;;8423305;27;19920;-75
